createdAt,value
2022-10-23T00:00:25.588Z,985.12
2022-10-23T00:01:25.567Z,985.12
2022-10-23T00:02:25.597Z,985.12
2022-10-23T00:03:25.538Z,985.12
2022-10-23T00:04:25.521Z,985.11
2022-10-23T00:05:25.520Z,985.10
2022-10-23T00:06:25.541Z,985.09
2022-10-23T00:07:25.557Z,985.08
2022-10-23T00:08:25.522Z,985.07
2022-10-23T00:09:25.495Z,985.08
2022-10-23T00:10:25.479Z,985.09
2022-10-23T00:11:25.496Z,985.09
2022-10-23T00:12:25.477Z,985.09
2022-10-23T00:13:25.471Z,985.07
2022-10-23T00:14:25.445Z,985.05
2022-10-23T00:15:25.453Z,985.04
2022-10-23T00:16:25.438Z,985.05
2022-10-23T00:17:25.455Z,985.09
2022-10-23T00:18:25.417Z,985.11
2022-10-23T00:19:25.421Z,985.11
2022-10-23T00:20:25.405Z,985.11
2022-10-23T00:21:25.393Z,985.10
2022-10-23T00:22:25.381Z,985.11
2022-10-23T00:23:25.431Z,985.11
2022-10-23T00:24:25.375Z,985.10
2022-10-23T00:25:25.367Z,985.08
2022-10-23T00:26:25.357Z,985.07
2022-10-23T00:27:25.339Z,985.07
2022-10-23T00:28:25.348Z,985.07
2022-10-23T00:29:25.358Z,985.08
2022-10-23T00:30:25.318Z,985.09
2022-10-23T00:31:25.318Z,985.10
2022-10-23T00:32:25.346Z,985.10
2022-10-23T00:33:25.326Z,985.08
2022-10-23T00:34:25.280Z,985.07
2022-10-23T00:35:25.274Z,985.05
2022-10-23T00:36:25.265Z,985.03
2022-10-23T00:37:25.294Z,985.03
2022-10-23T00:38:25.255Z,985.03
2022-10-23T00:39:25.266Z,985.03
2022-10-23T00:40:25.235Z,985.03
2022-10-23T00:41:25.235Z,985.03
2022-10-23T00:42:25.225Z,985.02
2022-10-23T00:43:25.209Z,985.01
2022-10-23T00:44:25.219Z,985.01
2022-10-23T00:45:25.244Z,985.01
2022-10-23T00:46:25.188Z,985.02
2022-10-23T00:47:25.180Z,985.02
2022-10-23T00:48:25.171Z,985.03
2022-10-23T00:49:25.175Z,985.03
2022-10-23T00:50:25.165Z,985.04
2022-10-23T00:51:25.166Z,985.04
2022-10-23T00:52:25.143Z,985.04
2022-10-23T00:53:25.145Z,985.03
2022-10-23T00:54:25.573Z,985.03
2022-10-23T00:55:25.114Z,985.04
2022-10-23T00:56:25.146Z,985.05
2022-10-23T00:57:25.148Z,985.06
2022-10-23T00:58:25.098Z,985.06
2022-10-23T00:59:25.086Z,985.06
2022-10-23T01:00:25.082Z,985.07
2022-10-23T01:01:25.241Z,985.06
2022-10-23T01:02:25.124Z,985.07
2022-10-23T01:03:25.064Z,985.07
2022-10-23T01:04:25.053Z,985.05
2022-10-23T01:05:25.053Z,985.04
2022-10-23T01:06:25.032Z,985.02
2022-10-23T01:07:25.031Z,984.98
2022-10-23T01:08:25.044Z,984.96
2022-10-23T01:09:25.027Z,984.93
2022-10-23T01:10:24.996Z,984.92
2022-10-23T01:11:24.994Z,984.91
2022-10-23T01:12:24.989Z,984.91
2022-10-23T01:13:24.981Z,984.91
2022-10-23T01:14:24.967Z,984.90
2022-10-23T01:15:24.992Z,984.90
2022-10-23T01:16:24.947Z,984.89
2022-10-23T01:17:24.942Z,984.90
2022-10-23T01:18:24.930Z,984.89
2022-10-23T01:19:24.957Z,984.90
2022-10-23T01:20:24.919Z,984.89
2022-10-23T01:21:24.921Z,984.90
2022-10-23T01:23:24.914Z,984.88
2022-10-23T01:24:24.916Z,984.85
2022-10-23T01:25:24.888Z,984.81
2022-10-23T01:26:24.896Z,984.79
2022-10-23T01:27:24.871Z,984.78
2022-10-23T01:28:24.859Z,984.78
2022-10-23T01:29:24.863Z,984.77
2022-10-23T01:30:24.848Z,984.77
2022-10-23T01:31:24.835Z,984.77
2022-10-23T01:32:24.880Z,984.77
2022-10-23T01:33:24.827Z,984.76
2022-10-23T01:34:24.814Z,984.75
2022-10-23T01:35:24.812Z,984.72
2022-10-23T01:36:24.802Z,984.68
2022-10-23T01:37:24.800Z,984.65
2022-10-23T01:38:24.806Z,984.61
2022-10-23T01:39:24.782Z,984.59
2022-10-23T01:40:24.771Z,984.57
2022-10-23T01:41:24.765Z,984.57
2022-10-23T01:42:24.750Z,984.56
2022-10-23T01:43:24.768Z,984.56
2022-10-23T01:44:24.738Z,984.55
2022-10-23T01:45:24.738Z,984.52
2022-10-23T01:46:24.727Z,984.49
2022-10-23T01:47:24.724Z,984.47
2022-10-23T01:48:24.737Z,984.46
2022-10-23T01:49:24.706Z,984.44
2022-10-23T01:50:24.696Z,984.43
2022-10-23T01:51:24.686Z,984.42
2022-10-23T01:52:24.680Z,984.41
2022-10-23T01:53:24.677Z,984.42
2022-10-23T01:54:24.690Z,984.44
2022-10-23T01:55:24.671Z,984.45
2022-10-23T01:56:24.644Z,984.44
2022-10-23T01:57:24.645Z,984.45
2022-10-23T01:58:24.659Z,984.47
2022-10-23T01:59:24.631Z,984.50
2022-10-23T02:00:24.626Z,984.51
2022-10-23T02:01:24.681Z,984.52
2022-10-23T02:02:24.654Z,984.53
2022-10-23T02:03:24.595Z,984.53
2022-10-23T02:04:24.607Z,984.54
2022-10-23T02:05:24.591Z,984.54
2022-10-23T02:06:24.572Z,984.55
2022-10-23T02:07:24.570Z,984.57
2022-10-23T02:08:24.561Z,984.58
2022-10-23T02:09:24.558Z,984.60
2022-10-23T02:10:24.564Z,984.62
2022-10-23T02:11:24.566Z,984.64
2022-10-23T02:12:24.587Z,984.66
2022-10-23T02:13:24.525Z,984.69
2022-10-23T02:14:24.527Z,984.70
2022-10-23T02:15:24.564Z,984.71
2022-10-23T02:16:24.511Z,984.72
2022-10-23T02:17:24.496Z,984.71
2022-10-23T02:18:24.488Z,984.71
2022-10-23T02:19:24.483Z,984.71
2022-10-23T02:20:24.478Z,984.70
2022-10-23T02:21:24.485Z,984.69
2022-10-23T02:22:24.459Z,984.66
2022-10-23T02:23:24.447Z,984.62
2022-10-23T02:24:24.434Z,984.59
2022-10-23T02:25:24.432Z,984.56
2022-10-23T02:26:24.440Z,984.52
2022-10-23T02:27:24.431Z,984.49
2022-10-23T02:28:24.418Z,984.46
2022-10-23T02:29:24.406Z,984.43
2022-10-23T02:30:24.397Z,984.41
2022-10-23T02:31:24.401Z,984.41
2022-10-23T02:32:24.412Z,984.42
2022-10-23T02:33:24.376Z,984.45
2022-10-23T02:34:24.362Z,984.47
2022-10-23T02:35:24.380Z,984.47
2022-10-23T02:36:24.345Z,984.46
2022-10-23T02:37:24.354Z,984.44
2022-10-23T02:38:24.361Z,984.40
2022-10-23T02:39:24.355Z,984.37
2022-10-23T02:40:24.321Z,984.34
2022-10-23T02:41:24.317Z,984.34
2022-10-23T02:42:24.306Z,984.37
2022-10-23T02:43:24.306Z,984.40
2022-10-23T02:44:24.288Z,984.44
2022-10-23T02:45:24.305Z,984.46
2022-10-23T02:46:24.277Z,984.49
2022-10-23T02:47:24.257Z,984.50
2022-10-23T02:48:24.258Z,984.49
2022-10-23T02:49:24.253Z,984.47
2022-10-23T02:50:24.243Z,984.46
2022-10-23T02:51:24.264Z,984.46
2022-10-23T02:52:24.231Z,984.45
2022-10-23T02:53:24.226Z,984.45
2022-10-23T02:54:24.218Z,984.44
2022-10-23T02:55:24.228Z,984.43
2022-10-23T02:56:24.208Z,984.41
2022-10-23T02:57:24.200Z,984.39
2022-10-23T02:58:24.195Z,984.36
2022-10-23T02:59:24.180Z,984.32
2022-10-23T03:00:24.162Z,984.27
2022-10-23T03:01:24.276Z,984.22
2022-10-23T03:02:25.672Z,984.21
2022-10-23T03:03:24.144Z,984.20
2022-10-23T03:04:24.158Z,984.21
2022-10-23T03:05:24.133Z,984.20
2022-10-23T03:06:24.126Z,984.20
2022-10-23T03:07:24.142Z,984.18
2022-10-23T03:08:24.117Z,984.15
2022-10-23T03:09:24.108Z,984.13
2022-10-23T03:10:24.098Z,984.11
2022-10-23T03:11:24.092Z,984.11
2022-10-23T03:12:24.100Z,984.11
2022-10-23T03:13:24.071Z,984.10
2022-10-23T03:14:24.073Z,984.11
2022-10-23T03:15:24.057Z,984.11
2022-10-23T03:16:24.062Z,984.12
2022-10-23T03:17:24.050Z,984.12
2022-10-23T03:18:24.060Z,984.13
2022-10-23T03:19:24.029Z,984.14
2022-10-23T03:20:24.048Z,984.16
2022-10-23T03:21:24.024Z,984.16
2022-10-23T03:22:24.077Z,984.17
2022-10-23T03:23:23.995Z,984.18
2022-10-23T03:24:24.001Z,984.18
2022-10-23T03:25:31.123Z,984.18
2022-10-23T03:26:23.983Z,984.18
2022-10-23T03:27:24.033Z,984.18
2022-10-23T03:28:23.990Z,984.18
2022-10-23T03:29:23.963Z,984.18
2022-10-23T03:30:23.945Z,984.19
2022-10-23T03:31:23.952Z,984.19
2022-10-23T03:32:23.933Z,984.18
2022-10-23T03:33:23.926Z,984.15
2022-10-23T03:34:23.946Z,984.12
2022-10-23T03:35:23.935Z,984.11
2022-10-23T03:36:23.904Z,984.09
2022-10-23T03:37:23.885Z,984.08
2022-10-23T03:38:23.884Z,984.08
2022-10-23T03:39:23.883Z,984.06
2022-10-23T03:40:23.879Z,984.06
2022-10-23T03:41:23.900Z,984.05
2022-10-23T03:42:23.860Z,984.05
2022-10-23T03:43:23.857Z,984.05
2022-10-23T03:44:23.866Z,984.07
2022-10-23T03:45:23.830Z,984.09
2022-10-23T03:46:23.829Z,984.12
2022-10-23T03:47:23.837Z,984.14
2022-10-23T03:48:23.815Z,984.16
2022-10-23T03:49:23.809Z,984.16
2022-10-23T03:50:23.792Z,984.14
2022-10-23T03:51:23.780Z,984.11
2022-10-23T03:53:23.791Z,984.02
2022-10-23T03:54:23.758Z,983.99
2022-10-23T03:55:23.752Z,983.98
2022-10-23T03:56:23.746Z,983.98
2022-10-23T03:57:23.743Z,984.00
2022-10-23T03:58:23.743Z,984.01
2022-10-23T03:59:23.723Z,984.02
2022-10-23T04:00:23.718Z,984.00
2022-10-23T04:01:23.849Z,983.98
2022-10-23T04:02:23.729Z,983.97
2022-10-23T04:03:23.693Z,983.96
2022-10-23T04:04:23.705Z,983.95
2022-10-23T04:05:23.674Z,983.94
2022-10-23T04:06:23.667Z,983.91
2022-10-23T04:07:23.662Z,983.89
2022-10-23T04:08:23.647Z,983.87
2022-10-23T04:09:23.643Z,983.87
2022-10-23T04:10:23.662Z,983.88
2022-10-23T04:11:23.658Z,983.89
2022-10-23T04:12:23.614Z,983.91
2022-10-23T04:13:23.635Z,983.92
2022-10-23T04:14:23.608Z,983.93
2022-10-23T04:15:23.617Z,983.95
2022-10-23T04:16:23.608Z,983.95
2022-10-23T04:17:23.639Z,983.94
2022-10-23T04:18:23.584Z,983.92
2022-10-23T04:19:23.575Z,983.91
2022-10-23T04:20:23.565Z,983.89
2022-10-23T04:21:23.578Z,983.87
2022-10-23T04:22:26.017Z,983.87
2022-10-23T04:23:23.549Z,983.87
2022-10-23T04:24:23.540Z,983.88
2022-10-23T04:25:23.587Z,983.90
2022-10-23T04:26:23.522Z,983.92
2022-10-23T04:27:23.534Z,983.94
2022-10-23T04:28:23.501Z,983.94
2022-10-23T04:29:23.502Z,983.94
2022-10-23T04:30:23.490Z,983.93
2022-10-23T04:31:23.507Z,983.91
2022-10-23T04:32:23.480Z,983.90
2022-10-23T04:33:23.517Z,983.89
2022-10-23T04:34:23.476Z,983.90
2022-10-23T04:35:23.457Z,983.90
2022-10-23T04:36:23.447Z,983.90
2022-10-23T04:37:23.442Z,983.88
2022-10-23T04:38:23.429Z,983.86
2022-10-23T04:39:23.443Z,983.84
2022-10-23T04:40:23.416Z,983.82
2022-10-23T04:41:23.439Z,983.80
2022-10-23T04:42:23.449Z,983.78
2022-10-23T04:43:23.399Z,983.76
2022-10-23T04:44:23.396Z,983.75
2022-10-23T04:45:23.383Z,983.76
2022-10-23T04:46:23.381Z,983.77
2022-10-23T04:47:23.394Z,983.78
2022-10-23T04:48:25.622Z,983.79
2022-10-23T04:49:24.384Z,983.80
2022-10-23T04:50:23.350Z,983.81
2022-10-23T04:51:23.349Z,983.83
2022-10-23T04:52:23.339Z,983.86
2022-10-23T04:53:23.326Z,983.88
2022-10-23T04:54:23.318Z,983.89
2022-10-23T04:55:23.328Z,983.92
2022-10-23T04:56:23.318Z,983.94
2022-10-23T04:57:23.302Z,983.95
2022-10-23T04:58:23.309Z,983.93
2022-10-23T04:59:23.288Z,983.91
2022-10-23T05:00:23.284Z,983.89
2022-10-23T05:01:23.393Z,983.87
2022-10-23T05:02:23.274Z,983.84
2022-10-23T05:03:23.257Z,983.81
2022-10-23T05:04:23.274Z,983.79
2022-10-23T05:05:23.247Z,983.78
2022-10-23T05:06:23.243Z,983.75
2022-10-23T05:07:23.253Z,983.73
2022-10-23T05:08:23.228Z,983.71
2022-10-23T05:09:23.269Z,983.72
2022-10-23T05:10:23.205Z,983.73
2022-10-23T05:11:23.243Z,983.76
2022-10-23T05:12:23.186Z,983.79
2022-10-23T05:13:23.181Z,983.81
2022-10-23T05:14:23.184Z,983.84
2022-10-23T05:15:23.237Z,983.88
2022-10-23T05:16:23.179Z,983.87
2022-10-23T05:17:23.173Z,983.82
2022-10-23T05:18:23.150Z,983.75
2022-10-23T05:19:24.354Z,983.67
2022-10-23T05:20:23.145Z,983.63
2022-10-23T05:21:23.154Z,983.63
2022-10-23T05:22:23.119Z,983.61
2022-10-23T05:23:23.113Z,983.61
2022-10-23T05:24:23.127Z,983.62
2022-10-23T05:25:23.099Z,983.65
2022-10-23T05:26:23.115Z,983.66
2022-10-23T05:27:23.084Z,983.66
2022-10-23T05:28:23.070Z,983.64
2022-10-23T05:29:23.194Z,983.63
2022-10-23T05:30:23.057Z,983.59
2022-10-23T05:31:23.057Z,983.56
2022-10-23T05:32:23.084Z,983.52
2022-10-23T05:33:23.063Z,983.50
2022-10-23T05:34:23.062Z,983.49
2022-10-23T05:35:23.025Z,983.49
2022-10-23T05:36:23.010Z,983.50
2022-10-23T05:37:23.021Z,983.52
2022-10-23T05:38:23.004Z,983.56
2022-10-23T05:39:22.993Z,983.63
2022-10-23T05:40:23.014Z,983.71
2022-10-23T05:41:22.994Z,983.76
2022-10-23T05:42:23.028Z,983.77
2022-10-23T05:43:22.975Z,983.75
2022-10-23T05:44:22.962Z,983.72
2022-10-23T05:45:22.970Z,983.68
2022-10-23T05:46:22.948Z,983.62
2022-10-23T05:47:22.941Z,983.57
2022-10-23T05:48:34.177Z,983.55
2022-10-23T05:49:23.950Z,983.57
2022-10-23T05:50:22.926Z,983.58
2022-10-23T05:51:22.921Z,983.58
2022-10-23T05:52:22.904Z,983.61
2022-10-23T05:53:22.896Z,983.65
2022-10-23T05:54:22.909Z,983.67
2022-10-23T05:55:22.894Z,983.66
2022-10-23T05:56:22.898Z,983.64
2022-10-23T05:57:22.883Z,983.62
2022-10-23T05:58:22.864Z,983.61
2022-10-23T05:59:23.283Z,983.63
2022-10-23T06:00:22.842Z,983.66
2022-10-23T06:01:22.889Z,983.69
2022-10-23T06:02:22.924Z,983.71
2022-10-23T06:03:22.826Z,983.71
2022-10-23T06:04:22.850Z,983.70
2022-10-23T06:05:22.824Z,983.68
2022-10-23T06:06:22.807Z,983.65
2022-10-23T06:07:22.808Z,983.63
2022-10-23T06:08:22.790Z,983.63
2022-10-23T06:09:22.790Z,983.64
2022-10-23T06:10:22.800Z,983.64
2022-10-23T06:11:22.774Z,983.65
2022-10-23T06:12:22.768Z,983.66
2022-10-23T06:13:22.788Z,983.67
2022-10-23T06:14:22.748Z,983.69
2022-10-23T06:15:22.763Z,983.69
2022-10-23T06:16:22.743Z,983.69
2022-10-23T06:17:22.736Z,983.70
2022-10-23T06:18:22.725Z,983.69
2022-10-23T06:19:22.712Z,983.65
2022-10-23T06:20:26.578Z,983.61
2022-10-23T06:21:23.722Z,983.57
2022-10-23T06:22:22.707Z,983.52
2022-10-23T06:23:22.682Z,983.50
2022-10-23T06:24:22.705Z,983.48
2022-10-23T06:25:22.662Z,983.48
2022-10-23T06:26:22.660Z,983.47
2022-10-23T06:27:22.653Z,983.46
2022-10-23T06:28:22.663Z,983.44
2022-10-23T06:29:22.639Z,983.43
2022-10-23T06:30:22.634Z,983.43
2022-10-23T06:31:22.645Z,983.46
2022-10-23T06:32:22.618Z,983.48
2022-10-23T06:33:22.609Z,983.47
2022-10-23T06:34:22.601Z,983.45
2022-10-23T06:35:22.605Z,983.42
2022-10-23T06:36:22.591Z,983.40
2022-10-23T06:37:22.612Z,983.39
2022-10-23T06:38:22.574Z,983.40
2022-10-23T06:39:22.586Z,983.43
2022-10-23T06:40:22.564Z,983.43
2022-10-23T06:41:22.559Z,983.40
2022-10-23T06:42:22.581Z,983.38
2022-10-23T06:43:22.557Z,983.37
2022-10-23T06:44:22.547Z,983.39
2022-10-23T06:45:22.528Z,983.43
2022-10-23T06:46:22.523Z,983.48
2022-10-23T06:47:22.522Z,983.53
2022-10-23T06:48:22.523Z,983.55
2022-10-23T06:49:22.504Z,983.54
2022-10-23T06:50:22.488Z,983.52
2022-10-23T06:51:22.487Z,983.50
2022-10-23T06:52:45.504Z,983.50
2022-10-23T06:53:23.495Z,983.52
2022-10-23T06:54:22.475Z,983.54
2022-10-23T06:55:22.461Z,983.56
2022-10-23T06:56:22.453Z,983.59
2022-10-23T06:57:22.462Z,983.61
2022-10-23T06:58:22.440Z,983.63
2022-10-23T06:59:22.423Z,983.63
2022-10-23T07:00:22.414Z,983.61
2022-10-23T07:01:22.614Z,983.60
2022-10-23T07:02:22.421Z,983.60
2022-10-23T07:03:22.397Z,983.61
2022-10-23T07:04:22.390Z,983.62
2022-10-23T07:05:22.405Z,983.64
2022-10-23T07:06:22.373Z,983.64
2022-10-23T07:07:22.390Z,983.65
2022-10-23T07:08:22.378Z,983.66
2022-10-23T07:09:22.357Z,983.65
2022-10-23T07:10:22.355Z,983.64
2022-10-23T07:11:22.346Z,983.61
2022-10-23T07:12:22.329Z,983.59
2022-10-23T07:13:22.367Z,983.58
2022-10-23T07:14:22.324Z,983.58
2022-10-23T07:15:22.313Z,983.59
2022-10-23T07:16:22.315Z,983.59
2022-10-23T07:17:22.310Z,983.58
2022-10-23T07:18:22.349Z,983.57
2022-10-23T07:19:22.298Z,983.55
2022-10-23T07:20:22.307Z,983.55
2022-10-23T07:21:22.274Z,983.53
2022-10-23T07:22:22.268Z,983.52
2022-10-23T07:23:22.265Z,983.49
2022-10-23T07:24:22.261Z,983.45
2022-10-23T07:25:22.254Z,983.40
2022-10-23T07:26:22.277Z,983.38
2022-10-23T07:27:22.235Z,983.36
2022-10-23T07:28:22.233Z,983.37
2022-10-23T07:29:22.230Z,983.38
2022-10-23T07:30:22.211Z,983.37
2022-10-23T07:31:24.411Z,983.36
2022-10-23T07:32:22.230Z,983.38
2022-10-23T07:33:22.193Z,983.37
2022-10-23T07:34:22.182Z,983.37
2022-10-23T07:35:22.179Z,983.37
2022-10-23T07:36:22.173Z,983.36
2022-10-23T07:37:22.174Z,983.35
2022-10-23T07:38:22.166Z,983.34
2022-10-23T07:39:22.150Z,983.32
2022-10-23T07:40:22.142Z,983.33
2022-10-23T07:41:22.155Z,983.35
2022-10-23T07:42:22.127Z,983.37
2022-10-23T07:43:22.140Z,983.37
2022-10-23T07:44:24.426Z,983.35
2022-10-23T07:45:22.117Z,983.34
2022-10-23T07:46:22.110Z,983.33
2022-10-23T07:47:22.111Z,983.31
2022-10-23T07:48:22.084Z,983.30
2022-10-23T07:49:22.120Z,983.30
2022-10-23T07:50:22.074Z,983.29
2022-10-23T07:51:22.095Z,983.28
2022-10-23T07:52:22.063Z,983.28
2022-10-23T07:53:22.050Z,983.26
2022-10-23T07:54:22.063Z,983.25
2022-10-23T07:55:22.034Z,983.25
2022-10-23T07:56:22.024Z,983.26
2022-10-23T07:57:22.024Z,983.27
2022-10-23T07:58:22.017Z,983.29
2022-10-23T07:59:22.045Z,983.31
2022-10-23T08:00:22.059Z,983.34
2022-10-23T08:01:22.032Z,983.33
2022-10-23T08:02:22.084Z,983.33
2022-10-23T08:03:21.989Z,983.33
2022-10-23T08:04:21.969Z,983.32
2022-10-23T08:05:21.965Z,983.31
2022-10-23T08:06:21.956Z,983.29
2022-10-23T08:07:21.983Z,983.28
2022-10-23T08:08:21.948Z,983.30
2022-10-23T08:09:21.941Z,983.33
2022-10-23T08:10:21.946Z,983.35
2022-10-23T08:11:21.920Z,983.36
2022-10-23T08:12:21.924Z,983.37
2022-10-23T08:13:21.915Z,983.38
2022-10-23T08:14:21.894Z,983.37
2022-10-23T08:15:21.894Z,983.38
2022-10-23T08:16:21.898Z,983.36
2022-10-23T08:17:24.038Z,983.35
2022-10-23T08:18:21.871Z,983.33
2022-10-23T08:19:21.886Z,983.31
2022-10-23T08:20:21.844Z,983.27
2022-10-23T08:21:21.842Z,983.24
2022-10-23T08:22:21.835Z,983.22
2022-10-23T08:23:21.828Z,983.20
2022-10-23T08:24:21.843Z,983.17
2022-10-23T08:25:24.856Z,983.16
2022-10-23T08:26:21.813Z,983.17
2022-10-23T08:27:21.835Z,983.19
2022-10-23T08:28:21.798Z,983.19
2022-10-23T08:29:21.799Z,983.21
2022-10-23T08:30:21.776Z,983.22
2022-10-23T08:31:21.797Z,983.22
2022-10-23T08:32:21.765Z,983.23
2022-10-23T08:33:21.748Z,983.26
2022-10-23T08:34:21.742Z,983.27
2022-10-23T08:35:21.753Z,983.27
2022-10-23T08:36:21.741Z,983.26
2022-10-23T08:37:21.765Z,983.24
2022-10-23T08:38:21.716Z,983.23
2022-10-23T08:39:21.746Z,983.21
2022-10-23T08:40:21.757Z,983.19
2022-10-23T08:41:21.702Z,983.16
2022-10-23T08:42:21.692Z,983.15
2022-10-23T08:43:21.696Z,983.14
2022-10-23T08:44:21.672Z,983.13
2022-10-23T08:45:21.676Z,983.12
2022-10-23T08:46:21.643Z,983.10
2022-10-23T08:47:21.676Z,983.08
2022-10-23T08:48:21.637Z,983.08
2022-10-23T08:49:21.644Z,983.08
2022-10-23T08:50:21.682Z,983.09
2022-10-23T08:51:21.630Z,983.10
2022-10-23T08:52:21.603Z,983.08
2022-10-23T08:53:21.597Z,983.06
2022-10-23T08:54:21.583Z,983.06
2022-10-23T08:55:21.594Z,983.05
2022-10-23T08:56:21.578Z,983.03
2022-10-23T08:57:21.626Z,983.05
2022-10-23T08:58:21.554Z,983.05
2022-10-23T08:59:21.560Z,983.04
2022-10-23T09:00:21.613Z,983.05
2022-10-23T09:01:21.625Z,983.06
2022-10-23T09:02:21.624Z,983.06
2022-10-23T09:03:21.527Z,983.05
2022-10-23T09:04:21.508Z,983.04
2022-10-23T09:05:21.490Z,983.01
2022-10-23T09:06:21.494Z,982.96
2022-10-23T09:07:21.484Z,982.90
2022-10-23T09:08:21.496Z,982.88
2022-10-23T09:09:21.468Z,982.85
2022-10-23T09:10:21.449Z,982.85
2022-10-23T09:11:21.448Z,982.83
2022-10-23T09:12:21.438Z,982.83
2022-10-23T09:13:21.470Z,982.84
2022-10-23T09:14:21.429Z,982.85
2022-10-23T09:15:21.431Z,982.87
2022-10-23T09:16:21.401Z,982.88
2022-10-23T09:17:21.417Z,982.89
2022-10-23T09:18:21.394Z,982.93
2022-10-23T09:19:21.404Z,982.96
2022-10-23T09:20:21.375Z,982.97
2022-10-23T09:21:21.368Z,982.98
2022-10-23T09:22:21.390Z,982.97
2022-10-23T09:23:21.367Z,982.95
2022-10-23T09:24:21.338Z,982.92
2022-10-23T09:25:21.340Z,982.89
2022-10-23T09:26:21.330Z,982.87
2022-10-23T09:27:21.324Z,982.88
2022-10-23T09:28:21.326Z,982.85
2022-10-23T09:29:21.317Z,982.83
2022-10-23T09:30:21.286Z,982.83
2022-10-23T09:31:21.294Z,982.82
2022-10-23T09:32:21.296Z,982.81
2022-10-23T09:33:21.301Z,982.82
2022-10-23T09:34:21.287Z,982.82
2022-10-23T09:35:21.258Z,982.81
2022-10-23T09:36:21.257Z,982.80
2022-10-23T09:37:21.534Z,982.80
2022-10-23T09:38:21.219Z,982.78
2022-10-23T09:39:21.252Z,982.77
2022-10-23T09:40:21.216Z,982.74
2022-10-23T09:41:21.212Z,982.71
2022-10-23T09:42:21.198Z,982.70
2022-10-23T09:43:21.200Z,982.71
2022-10-23T09:44:21.213Z,982.72
2022-10-23T09:45:21.207Z,982.74
2022-10-23T09:46:21.187Z,982.71
2022-10-23T09:47:21.180Z,982.70
2022-10-23T09:48:21.162Z,982.68
2022-10-23T09:49:21.158Z,982.64
2022-10-23T09:50:21.183Z,982.61
2022-10-23T09:51:21.164Z,982.60
2022-10-23T09:52:21.140Z,982.60
2022-10-23T09:53:21.135Z,982.59
2022-10-23T09:54:21.118Z,982.58
2022-10-23T09:55:21.130Z,982.57
2022-10-23T09:56:24.464Z,982.55
2022-10-23T09:57:21.107Z,982.55
2022-10-23T09:58:21.111Z,982.55
2022-10-23T09:59:21.098Z,982.57
2022-10-23T10:00:21.069Z,982.57
2022-10-23T10:01:21.196Z,982.55
2022-10-23T10:02:21.139Z,982.56
2022-10-23T10:03:21.056Z,982.57
2022-10-23T10:04:21.047Z,982.57
2022-10-23T10:05:21.050Z,982.57
2022-10-23T10:06:21.030Z,982.57
2022-10-23T10:07:21.043Z,982.55
2022-10-23T10:08:21.036Z,982.53
2022-10-23T10:09:21.072Z,982.51
2022-10-23T10:10:21.006Z,982.49
2022-10-23T10:11:21.023Z,982.49
2022-10-23T10:12:20.985Z,982.51
2022-10-23T10:13:20.989Z,982.49
2022-10-23T10:14:20.971Z,982.52
2022-10-23T10:15:20.987Z,982.54
2022-10-23T10:16:20.975Z,982.55
2022-10-23T10:17:20.951Z,982.56
2022-10-23T10:18:20.943Z,982.55
2022-10-23T10:19:20.934Z,982.54
2022-10-23T10:20:20.951Z,982.52
2022-10-23T10:21:20.932Z,982.48
2022-10-23T10:22:20.933Z,982.44
2022-10-23T10:23:20.915Z,982.40
2022-10-23T10:24:20.910Z,982.36
2022-10-23T10:25:20.892Z,982.34
2022-10-23T10:26:20.943Z,982.32
2022-10-23T10:27:20.875Z,982.29
2022-10-23T10:28:20.875Z,982.27
2022-10-23T10:29:20.873Z,982.27
2022-10-23T10:30:20.878Z,982.28
2022-10-23T10:31:20.861Z,982.28
2022-10-23T10:32:20.859Z,982.28
2022-10-23T10:33:20.839Z,982.29
2022-10-23T10:34:20.825Z,982.28
2022-10-23T10:35:20.844Z,982.29
2022-10-23T10:36:20.848Z,982.29
2022-10-23T10:37:20.839Z,982.30
2022-10-23T10:38:20.806Z,982.31
2022-10-23T10:39:20.824Z,982.30
2022-10-23T10:40:20.781Z,982.29
2022-10-23T10:41:20.781Z,982.25
2022-10-23T10:42:20.773Z,982.22
2022-10-23T10:43:20.773Z,982.22
2022-10-23T10:44:20.775Z,982.22
2022-10-23T10:45:20.754Z,982.21
2022-10-23T10:46:20.756Z,982.19
2022-10-23T10:47:21.374Z,982.15
2022-10-23T10:48:20.724Z,982.13
2022-10-23T10:49:20.716Z,982.12
2022-10-23T10:50:20.712Z,982.10
2022-10-23T10:51:20.697Z,982.08
2022-10-23T10:52:20.690Z,982.06
2022-10-23T10:53:20.715Z,982.05
2022-10-23T10:54:20.678Z,982.05
2022-10-23T10:55:20.679Z,982.05
2022-10-23T10:56:20.658Z,982.03
2022-10-23T10:57:20.652Z,982.01
2022-10-23T10:58:20.645Z,981.99
2022-10-23T10:59:20.652Z,981.97
2022-10-23T11:00:20.639Z,981.95
2022-10-23T11:01:20.702Z,981.93
2022-10-23T11:02:20.664Z,981.93
2022-10-23T11:03:20.605Z,981.93
2022-10-23T11:04:20.610Z,981.92
2022-10-23T11:05:20.587Z,981.92
2022-10-23T11:06:20.586Z,981.91
2022-10-23T11:07:20.581Z,981.90
2022-10-23T11:08:20.590Z,981.87
2022-10-23T11:09:21.132Z,981.85
2022-10-23T11:10:20.549Z,981.83
2022-10-23T11:11:20.552Z,981.82
2022-10-23T11:12:20.561Z,981.84
2022-10-23T11:13:20.525Z,981.85
2022-10-23T11:14:20.533Z,981.85
2022-10-23T11:15:20.539Z,981.83
2022-10-23T11:16:20.517Z,981.82
2022-10-23T11:17:20.559Z,981.81
2022-10-23T11:18:20.492Z,981.80
2022-10-23T11:19:20.487Z,981.80
2022-10-23T11:20:20.545Z,981.78
2022-10-23T11:21:20.473Z,981.74
2022-10-23T11:22:20.501Z,981.71
2022-10-23T11:23:20.477Z,981.68
2022-10-23T11:24:20.472Z,981.67
2022-10-23T11:25:20.445Z,981.65
2022-10-23T11:26:20.428Z,981.65
2022-10-23T11:27:20.444Z,981.65
2022-10-23T11:28:20.438Z,981.62
2022-10-23T11:29:20.406Z,981.59
2022-10-23T11:30:20.397Z,981.56
2022-10-23T11:31:20.400Z,981.54
2022-10-23T11:32:20.462Z,981.54
2022-10-23T11:33:20.404Z,981.55
2022-10-23T11:34:20.372Z,981.54
2022-10-23T11:35:20.390Z,981.52
2022-10-23T11:36:20.358Z,981.53
2022-10-23T11:37:20.362Z,981.53
2022-10-23T11:38:20.394Z,981.53
2022-10-23T11:39:20.347Z,981.50
2022-10-23T11:40:20.330Z,981.47
2022-10-23T11:41:23.649Z,981.46
2022-10-23T11:42:21.320Z,981.47
2022-10-23T11:43:20.318Z,981.47
2022-10-23T11:44:20.332Z,981.48
2022-10-23T11:45:20.296Z,981.47
2022-10-23T11:46:20.284Z,981.45
2022-10-23T11:47:20.281Z,981.43
2022-10-23T11:48:20.274Z,981.41
2022-10-23T11:49:20.270Z,981.39
2022-10-23T11:50:20.279Z,981.37
2022-10-23T11:51:20.258Z,981.36
2022-10-23T11:52:20.229Z,981.35
2022-10-23T11:53:20.722Z,981.37
2022-10-23T11:54:20.210Z,981.37
2022-10-23T11:55:20.215Z,981.37
2022-10-23T11:56:20.218Z,981.35
2022-10-23T11:57:20.235Z,981.32
2022-10-23T11:58:20.200Z,981.29
2022-10-23T11:59:20.182Z,981.24
2022-10-23T12:00:20.216Z,981.18
2022-10-23T12:01:20.203Z,981.16
2022-10-23T12:02:20.214Z,981.14
2022-10-23T12:03:20.155Z,981.13
2022-10-23T12:04:20.141Z,981.14
2022-10-23T12:05:20.152Z,981.14
2022-10-23T12:06:20.160Z,981.16
2022-10-23T12:07:20.117Z,981.15
2022-10-23T12:08:20.104Z,981.16
2022-10-23T12:09:20.107Z,981.14
2022-10-23T12:10:20.089Z,981.12
2022-10-23T12:11:23.232Z,981.10
2022-10-23T12:12:21.088Z,981.07
2022-10-23T12:13:20.066Z,981.04
2022-10-23T12:14:20.069Z,981.01
2022-10-23T12:15:20.088Z,980.99
2022-10-23T12:16:20.048Z,980.97
2022-10-23T12:17:20.055Z,980.94
2022-10-23T12:18:20.041Z,980.92
2022-10-23T12:19:20.030Z,980.92
2022-10-23T12:20:20.013Z,980.93
2022-10-23T12:21:20.031Z,980.93
2022-10-23T12:22:19.999Z,980.93
2022-10-23T12:23:19.998Z,980.92
2022-10-23T12:24:19.988Z,980.90
2022-10-23T12:25:19.989Z,980.89
2022-10-23T12:26:19.978Z,980.85
2022-10-23T12:27:19.993Z,980.82
2022-10-23T12:28:19.997Z,980.82
2022-10-23T12:29:19.954Z,980.82
2022-10-23T12:30:19.956Z,980.83